Aviation Digital Data Service (ADDS)

Output produced by METARs form (0737 UTC 18 November 2018)
found at http://www.aviationweather.gov/metar/data/
 
METAR text: RJFF 180730Z 34006KT 300V020 9999 FEW030 SCT040 BKN080 16/09 Q1017 NOSIG RMK 1CU030 3CU040 7AC080 A3006
Conditions at: RJFF (FUKUOKA/ITAZUKE , JP) observed 0730 UTC 18 November 2018
Temperature: 16.0°C (61°F)
Dewpoint: 9.0°C (48°F) [RH = 63%]
Pressure (altimeter): 30.03 inches Hg (1017.0 mb)
Winds: from the NNW (340 degrees) at 7 MPH (6 knots; 3.1 m/s)
Visibility: 6 or more miles (10+ km)
Ceiling: 8000 feet AGL
Clouds: few clouds at 3000 feet AGL
scattered clouds at 4000 feet AGL
broken clouds at 8000 feet AGL
Weather: no significant weather observed at this time

METAR text: RJFF 180700Z 31008KT 290V350 9999 -RA FEW030 SCT050 BKN080 16/09 Q1018 NOSIG RMK 1CU030 3SC050 7AC080 A3007
Conditions at: RJFF (FUKUOKA/ITAZUKE , JP) observed 0700 UTC 18 November 2018
Temperature: 16.0°C (61°F)
Dewpoint: 9.0°C (48°F) [RH = 63%]
Pressure (altimeter): 30.06 inches Hg (1018.0 mb)
Winds: from the NW (310 degrees) at 9 MPH (8 knots; 4.1 m/s)
Visibility: 6 or more miles (10+ km)
Ceiling: 8000 feet AGL
Clouds: few clouds at 3000 feet AGL
scattered clouds at 5000 feet AGL
broken clouds at 8000 feet AGL
Weather: -RA  (light rain)

Forecast for: RJFF (FUKUOKA/ITAZUKE , JP)
Text: TAF RJFF 180510Z 1806/1912 32005KT 9999 -RA FEW020 BKN045
Forecast period: 0600 to 0900 UTC 18 November 2018
Forecast type: FROM: standard forecast or significant change
Winds: from the NW (320 degrees) at 6 MPH (5 knots; 2.6 m/s)
Visibility: 6 or more miles 10+ km)
Ceiling: 4500 feet AGL
Clouds: few clouds at 2000 feet AGL
broken clouds at 4500 feet AGL
Weather: -RA  (light rain)
Text: BECMG 1809/1811 16005KT
Forecast period: 0900 to 1300 UTC 18 November 2018
Forecast type: BECOMING: Conditions expected to become as follows by 1100 UTC 18 November 2018
Winds: from the SSE (160 degrees) at 6 MPH (5 knots; 2.6 m/s)
Visibility: 6 or more miles 10+ km)
Ceiling: 4500 feet AGL
Clouds: few clouds at 2000 feet AGL
broken clouds at 4500 feet AGL
Weather: -RA  (light rain)
Text: BECMG 1813/1815 32004KT
Forecast period: 1300 UTC 18 November 2018 to 1200 UTC 19 November 2018
Forecast type: BECOMING: Conditions expected to become as follows by 1500 UTC 18 November 2018
Winds: from the NW (320 degrees) at 5 MPH (4 knots; 2.1 m/s)
Visibility: 6 or more miles 10+ km)
Ceiling: 4500 feet AGL
Clouds: few clouds at 2000 feet AGL
broken clouds at 4500 feet AGL
Weather: -RA  (light rain)